Time;durP1;ratioP1;P1;durP2;ratioP2;P2;SDS_P1;SDS_P2;PMS_P1;PMS_P2;Temp;Humidity;BMP_temperature;BMP_pressure;BME280_temperature;BME280_humidity;BME280_pressure;Samples;Min_cycle;Max_cycle;Signal;HPM_P1;HPM_P2
2021/10/17 00:01:34;;;;;;;3.03;1.80;;;;;;;13.60;100.00;100412.59;4951219;28;20076;-89
2021/10/17 00:03:59;;;;;;;4.05;1.75;;;;;;;13.54;100.00;100403.44;4968489;28;20057;-90
2021/10/17 00:06:28;;;;;;;3.50;1.90;;;;;;;13.56;100.00;100401.38;4945712;28;20395;-90
2021/10/17 00:08:55;;;;;;;3.50;2.20;;;;;;;13.56;100.00;100397.84;4951257;28;20042;-90
2021/10/17 00:11:25;;;;;;;2.92;1.75;;;;;;;13.44;100.00;100384.09;4966870;28;20241;-90
2021/10/17 00:13:51;;;;;;;3.85;1.90;;;;;;;13.56;100.00;100400.56;4983959;28;20105;-90
2021/10/17 00:16:18;;;;;;;2.88;1.77;;;;;;;13.61;100.00;100414.28;4954691;28;20034;-92
2021/10/17 00:18:43;;;;;;;2.50;1.80;;;;;;;13.57;100.00;100403.03;4940787;28;20370;-89
2021/10/17 00:21:09;;;;;;;4.93;2.13;;;;;;;13.69;100.00;100422.19;4954160;28;20042;-91
2021/10/17 00:23:35;;;;;;;3.97;1.63;;;;;;;13.70;100.00;100417.63;4957553;28;20035;-90
2021/10/17 00:26:01;;;;;;;3.08;1.58;;;;;;;13.57;100.00;100394.09;4952180;28;20047;-90
2021/10/17 00:28:27;;;;;;;3.85;2.10;;;;;;;13.73;100.00;100428.84;4957406;28;20038;-90
2021/10/17 00:30:52;;;;;;;3.83;1.50;;;;;;;13.74;100.00;100421.59;4966299;28;20035;-90
2021/10/17 00:33:18;;;;;;;2.33;1.52;;;;;;;13.62;100.00;100407.81;4964326;28;20030;-91
2021/10/17 00:35:44;;;;;;;5.18;2.40;;;;;;;13.74;100.00;100427.81;4967872;28;20042;-91
2021/10/17 00:38:10;;;;;;;3.28;1.45;;;;;;;13.68;100.00;100415.13;4981657;28;20055;-91
2021/10/17 00:40:36;;;;;;;2.97;1.73;;;;;;;13.58;100.00;100399.31;4939757;28;20383;-90
2021/10/17 00:43:02;;;;;;;2.28;1.55;;;;;;;13.59;100.00;100394.72;4955859;28;20038;-90
2021/10/17 00:45:30;;;;;;;3.13;1.95;;;;;;;13.73;100.00;100430.72;4938364;28;20053;-91
2021/10/17 00:47:56;;;;;;;1.90;1.40;;;;;;;13.58;100.00;100404.72;4954517;28;20062;-89
2021/10/17 00:50:22;;;;;;;3.50;1.80;;;;;;;13.68;100.00;100430.50;4943229;28;20454;-91
2021/10/17 00:52:48;;;;;;;2.22;1.73;;;;;;;13.61;100.00;100411.56;4953693;28;20126;-90
2021/10/17 00:55:16;;;;;;;3.75;1.63;;;;;;;13.58;100.00;100415.53;4954913;28;20034;-89
2021/10/17 00:58:01;;;;;;;2.20;1.52;;;;;;;13.56;100.00;100420.28;4982524;28;20081;-91
2021/10/17 01:00:27;;;;;;;2.13;1.52;;;;;;;13.53;100.00;100407.19;4938689;28;20381;-90
2021/10/17 01:02:54;;;;;;;2.20;1.50;;;;;;;13.50;100.00;100404.91;4956603;28;20126;-89
2021/10/17 01:05:20;;;;;;;4.55;1.90;;;;;;;13.53;100.00;100409.06;4986319;28;20041;-90
2021/10/17 01:07:46;;;;;;;2.08;1.38;;;;;;;13.46;100.00;100400.09;4954098;28;20042;-89
2021/10/17 01:10:13;;;;;;;2.50;1.45;;;;;;;13.55;100.00;100413.22;4948579;28;20058;-90
2021/10/17 01:12:39;;;;;;;3.88;1.73;;;;;;;13.65;100.00;100437.13;4964438;28;20031;-90
2021/10/17 01:15:05;;;;;;;2.13;1.30;;;;;;;13.51;100.00;100420.06;4959085;28;20038;-89
2021/10/17 01:17:34;;;;;;;2.03;1.30;;;;;;;13.58;100.00;100428.19;4957738;28;20042;-89
2021/10/17 01:20:00;;;;;;;2.95;1.80;;;;;;;13.49;100.00;100405.09;4954396;28;20042;-90
2021/10/17 01:22:26;;;;;;;1.63;1.20;;;;;;;13.49;100.00;100415.91;4968129;28;20034;-89
2021/10/17 01:24:53;;;;;;;3.05;1.35;;;;;;;13.52;100.00;100419.03;4942039;28;22775;-91
2021/10/17 01:27:18;;;;;;;2.80;1.48;;;;;;;13.61;100.00;100425.09;4952740;28;20077;-90
2021/10/17 01:29:49;;;;;;;2.63;1.45;;;;;;;13.59;100.00;100432.56;4952991;28;20062;-90
2021/10/17 01:32:15;;;;;;;2.42;1.50;;;;;;;13.51;100.00;100414.66;4956119;28;20121;-89
2021/10/17 01:34:41;;;;;;;2.35;1.35;;;;;;;13.55;100.00;100418.63;4941861;28;20092;-90
2021/10/17 01:37:06;;;;;;;5.05;1.55;;;;;;;13.62;100.00;100426.75;4974855;28;20039;-90
2021/10/17 01:39:32;;;;;;;2.53;1.17;;;;;;;13.48;100.00;100403.44;4959119;28;20166;-90
2021/10/17 01:41:58;;;;;;;2.47;1.52;;;;;;;13.69;100.00;100434.88;4974446;28;20123;-90
2021/10/17 01:44:33;;;;;;;3.50;1.70;;;;;;;13.71;100.00;100446.31;4968467;28;20134;-90
2021/10/17 01:47:00;;;;;;;2.10;1.55;;;;;;;13.68;100.00;100441.28;4958356;28;20034;-90
2021/10/17 01:49:26;;;;;;;3.85;1.70;;;;;;;13.71;100.00;100438.22;4970768;28;20046;-91
2021/10/17 01:51:52;;;;;;;3.65;1.77;;;;;;;13.62;100.00;100426.75;4958139;28;20049;-90
2021/10/17 01:54:18;;;;;;;2.60;1.38;;;;;;;13.55;100.00;100415.94;4955858;28;20034;-91
2021/10/17 01:56:44;;;;;;;2.80;1.73;;;;;;;13.60;100.00;100416.16;4973513;28;20483;-90
2021/10/17 01:59:10;;;;;;;2.90;1.55;;;;;;;13.69;100.00;100426.78;4956756;28;20037;-91
2021/10/17 02:01:37;;;;;;;2.25;1.75;;;;;;;13.69;100.00;100424.88;4950343;28;20061;-89
2021/10/17 02:04:04;;;;;;;2.42;1.63;;;;;;;13.67;100.00;100426.13;4969294;28;20049;-90
2021/10/17 02:06:30;;;;;;;3.80;1.65;;;;;;;13.77;100.00;100437.38;4964467;28;20038;-90
2021/10/17 02:08:57;;;;;;;7.57;2.00;;;;;;;13.60;100.00;100408.03;4952970;28;20137;-90
2021/10/17 02:11:22;;;;;;;3.63;1.63;;;;;;;13.63;100.00;100407.63;4954797;28;20538;-91
2021/10/17 02:13:48;;;;;;;4.95;2.15;;;;;;;13.68;100.00;100414.28;4962132;28;20039;-90
2021/10/17 02:16:14;;;;;;;4.00;1.92;;;;;;;13.63;100.00;100407.63;4955401;28;20051;-90
2021/10/17 02:18:40;;;;;;;3.17;1.88;;;;;;;13.81;100.00;100433.22;4957184;28;20050;-90
2021/10/17 02:21:06;;;;;;;4.07;1.73;;;;;;;13.75;100.00;100420.53;4967653;28;20039;-90
2021/10/17 02:23:32;;;;;;;3.78;2.17;;;;;;;13.64;100.00;100401.19;4957078;28;20392;-90
2021/10/17 02:25:58;;;;;;;5.55;2.58;;;;;;;13.74;100.00;100408.91;4988596;28;20066;-90
2021/10/17 02:28:24;;;;;;;5.93;2.38;;;;;;;13.84;100.00;100427.44;4956243;28;20138;-90
2021/10/17 02:30:50;;;;;;;6.07;2.78;;;;;;;13.77;100.00;100415.78;4937630;28;20042;-91
2021/10/17 02:33:16;;;;;;;8.68;3.60;;;;;;;13.75;100.00;100397.03;4960626;28;20369;-91
2021/10/17 02:35:41;;;;;;;7.88;3.45;;;;;;;13.78;100.00;100391.22;4947010;28;20038;-90
2021/10/17 02:38:07;;;;;;;6.65;3.22;;;;;;;13.81;100.00;100390.84;4969633;28;20043;-90
2021/10/17 02:40:36;;;;;;;5.88;2.85;;;;;;;13.98;100.00;100418.28;4945738;28;20090;-89
2021/10/17 02:43:02;;;;;;;3.67;2.05;;;;;;;13.84;100.00;100395.81;4967730;28;20035;-90
2021/10/17 02:45:28;;;;;;;4.20;2.17;;;;;;;13.78;100.00;100396.63;4952675;28;20022;-91
2021/10/17 02:47:54;;;;;;;8.00;2.05;;;;;;;13.84;100.00;100403.94;4952515;28;20347;-90
2021/10/17 02:50:19;;;;;;;6.05;2.17;;;;;;;13.69;100.00;100380.84;4954281;28;20388;-90
2021/10/17 02:52:45;;;;;;;9.50;2.30;;;;;;;13.69;100.00;100391.66;4969752;28;20089;-90
2021/10/17 02:55:11;;;;;;;5.07;1.88;;;;;;;13.61;100.00;100374.59;4971887;28;20035;-90
2021/10/17 02:57:37;;;;;;;5.78;1.70;;;;;;;13.70;100.00;100387.91;4975064;28;20030;-89
2021/10/17 03:00:04;;;;;;;2.15;1.30;;;;;;;13.67;100.00;100386.44;4937913;28;20062;-90
2021/10/17 03:02:31;;;;;;;4.22;1.63;;;;;;;13.60;100.00;100372.94;4969413;28;20058;-89
2021/10/17 03:04:56;;;;;;;2.70;1.27;;;;;;;13.55;100.00;100367.31;4964098;28;20042;-90
2021/10/17 03:07:22;;;;;;;4.88;1.20;;;;;;;13.62;100.00;100388.91;4949652;28;22171;-90
2021/10/17 03:09:48;;;;;;;2.80;1.00;;;;;;;13.45;100.00;100369.56;4968265;28;20377;-89
2021/10/17 03:12:14;;;;;;;2.70;1.00;;;;;;;13.56;100.00;100390.56;4952046;28;20034;-89
2021/10/17 03:14:39;;;;;;;2.67;1.10;;;;;;;13.45;100.00;100377.66;4960314;28;20035;-88
2021/10/17 03:17:06;;;;;;;3.85;1.13;;;;;;;13.42;100.00;100378.09;4953523;28;20042;-90
2021/10/17 03:19:33;;;;;;;3.20;1.00;;;;;;;13.38;100.00;100374.94;4938391;28;20038;-90
2021/10/17 03:21:59;;;;;;;1.83;1.20;;;;;;;13.29;100.00;100361.84;4938253;28;20034;-90
2021/10/17 03:24:24;;;;;;;2.78;1.00;;;;;;;13.25;100.00;100357.84;4953444;28;20113;-90
2021/10/17 03:26:50;;;;;;;1.92;1.00;;;;;;;13.33;100.00;100384.69;4954213;28;20042;-91
2021/10/17 03:29:18;;;;;;;1.92;1.00;;;;;;;13.20;100.00;100370.09;4947491;28;20116;-90
2021/10/17 03:31:44;;;;;;;1.33;0.82;;;;;;;13.14;100.00;100367.34;4952471;28;20073;-90
2021/10/17 03:34:10;;;;;;;3.83;0.80;;;;;;;12.99;100.00;100356.69;4959662;28;20127;-91
2021/10/17 03:36:36;;;;;;;2.17;1.05;;;;;;;13.09;100.00;100386.84;4934921;28;20070;-90
2021/10/17 03:39:02;;;;;;;1.55;0.88;;;;;;;12.88;100.00;100354.59;4949562;28;20413;-90
2021/10/17 03:41:27;;;;;;;1.42;0.82;;;;;;;12.91;100.00;100363.13;4967823;28;20384;-90
2021/10/17 03:43:53;;;;;;;2.17;1.08;;;;;;;12.81;100.00;100351.88;4951974;28;20349;-91
2021/10/17 03:46:22;;;;;;;2.22;0.85;;;;;;;12.90;100.00;100366.84;4950890;28;20133;-90
2021/10/17 03:48:47;;;;;;;1.60;0.90;;;;;;;12.89;100.00;100375.16;4957512;28;20038;-89
2021/10/17 03:51:13;;;;;;;1.23;0.90;;;;;;;12.79;100.00;100367.41;4937753;28;20388;-91
2021/10/17 03:53:39;;;;;;;3.70;1.30;;;;;;;12.74;100.00;100370.72;4953264;28;20121;-90
2021/10/17 03:56:05;;;;;;;2.10;0.85;;;;;;;12.75;100.00;100379.63;4952958;28;20138;-90
2021/10/17 03:58:34;;;;;;;2.00;1.00;;;;;;;12.64;100.00;100381.03;4967791;28;20034;-90
2021/10/17 04:00:59;;;;;;;2.38;0.90;;;;;;;12.68;100.00;100385.00;4970553;28;20042;-89
2021/10/17 04:03:26;;;;;;;3.30;1.20;;;;;;;12.74;100.00;100400.38;4955394;28;20066;-91
2021/10/17 04:05:51;;;;;;;3.08;1.20;;;;;;;12.62;100.00;100385.81;4958432;28;20054;-89
2021/10/17 04:08:20;;;;;;;3.15;1.40;;;;;;;12.60;100.00;100389.72;4947311;28;20026;-89
2021/10/17 04:10:49;;;;;;;2.40;1.17;;;;;;;12.60;100.00;100400.53;4950421;28;20040;-90
2021/10/17 04:13:15;;;;;;;3.90;1.60;;;;;;;12.57;100.00;100396.34;4953886;28;20038;-90
2021/10/17 04:15:40;;;;;;;6.75;2.78;;;;;;;12.62;100.00;100404.69;4957327;28;20042;-90
2021/10/17 04:18:06;;;;;;;7.63;2.53;;;;;;;12.50;100.00;100399.00;4954679;28;20371;-90
2021/10/17 04:20:32;;;;;;;9.15;2.33;;;;;;;12.49;100.00;100402.72;4953663;28;20065;-89
2021/10/17 04:22:59;;;;;;;8.27;2.22;;;;;;;12.51;100.00;100400.66;4957695;28;20499;-90
2021/10/17 04:25:25;;;;;;;12.02;3.42;;;;;;;12.60;100.00;100411.31;4984661;28;20337;-90
2021/10/17 04:27:51;;;;;;;8.35;2.67;;;;;;;12.53;100.00;100403.16;4970656;28;20030;-90
2021/10/17 04:30:17;;;;;;;11.30;2.67;;;;;;;12.40;100.00;100365.31;4969974;28;20054;-89
2021/10/17 04:32:43;;;;;;;11.20;2.88;;;;;;;12.44;100.00;100377.38;4965096;28;20038;-89
2021/10/17 04:35:11;;;;;;;8.23;2.33;;;;;;;12.42;100.00;100379.44;4950736;28;20046;-90
2021/10/17 04:37:40;;;;;;;10.10;3.05;;;;;;;12.56;100.00;100418.94;4982639;28;20027;-90
2021/10/17 04:40:07;;;;;;;8.93;2.50;;;;;;;12.42;100.00;100382.97;4940746;28;20038;-89
2021/10/17 04:42:35;;;;;;;6.50;2.40;;;;;;;12.47;100.00;100393.16;4942991;28;20031;-89
2021/10/17 04:45:01;;;;;;;6.50;2.20;;;;;;;12.47;100.00;100401.25;4952509;28;20085;-90
2021/10/17 04:47:28;;;;;;;7.57;2.30;;;;;;;12.53;100.00;100411.25;4949997;28;20031;-89
2021/10/17 04:49:55;;;;;;;5.45;2.28;;;;;;;12.38;100.00;100387.06;4961029;28;20034;-90
2021/10/17 04:52:20;;;;;;;5.40;2.22;;;;;;;12.39;100.00;100390.63;4957574;28;20035;-90
2021/10/17 04:54:46;;;;;;;7.53;2.60;;;;;;;12.54;100.00;100418.28;4956626;28;20039;-90
2021/10/17 04:57:14;;;;;;;7.20;2.00;;;;;;;12.40;100.00;100389.59;4950183;28;20031;-89
2021/10/17 04:59:40;;;;;;;6.40;2.05;;;;;;;12.56;100.00;100420.81;4950892;28;20039;-90
2021/10/17 05:02:07;;;;;;;10.75;2.35;;;;;;;12.43;100.00;100398.09;4953395;28;20031;-90
2021/10/17 05:04:37;;;;;;;14.00;3.08;;;;;;;12.48;100.00;100408.31;4951181;28;20480;-89
2021/10/17 05:07:03;;;;;;;10.55;3.13;;;;;;;12.37;100.00;100400.78;4954122;28;20443;-88
2021/10/17 05:09:29;;;;;;;8.40;2.78;;;;;;;12.37;100.00;100403.47;4950298;28;20109;-91
2021/10/17 05:11:55;;;;;;;12.13;2.50;;;;;;;12.38;100.00;100413.22;4978835;28;20042;-89
2021/10/17 05:14:20;;;;;;;9.40;2.55;;;;;;;12.32;100.00;100404.03;4967938;28;20042;-89
2021/10/17 05:16:47;;;;;;;12.05;3.97;;;;;;;12.38;100.00;100413.22;4955966;28;20133;-89
2021/10/17 05:19:12;;;;;;;11.40;1.88;;;;;;;12.45;100.00;100431.09;4972626;28;20081;-89
2021/10/17 05:21:38;;;;;;;13.88;2.90;;;;;;;12.46;100.00;100435.50;4964660;28;20046;-92
2021/10/17 05:24:04;;;;;;;8.52;2.20;;;;;;;12.46;100.00;100443.56;4970380;28;20074;-89
2021/10/17 05:26:30;;;;;;;8.30;2.60;;;;;;;12.28;100.00;100422.47;4951860;28;20039;-90
2021/10/17 05:28:55;;;;;;;8.13;1.88;;;;;;;12.44;100.00;100442.94;4971048;28;20096;-91
2021/10/17 05:31:21;;;;;;;8.32;2.10;;;;;;;12.34;100.00;100436.22;4953595;28;20039;-92
2021/10/17 05:33:47;;;;;;;9.25;2.13;;;;;;;12.30;100.00;100428.53;4971327;28;20464;-89
2021/10/17 05:36:13;;;;;;;8.05;2.38;;;;;;;12.41;100.00;100451.41;4986593;28;20045;-92
2021/10/17 05:38:40;;;;;;;8.13;2.67;;;;;;;12.16;100.00;100418.63;4956488;28;20030;-90
2021/10/17 05:41:06;;;;;;;8.45;2.13;;;;;;;12.30;100.00;100439.31;4956773;28;20035;-90
2021/10/17 05:43:33;;;;;;;6.45;2.85;;;;;;;12.25;100.00;100439.06;4963962;28;20089;-90
2021/10/17 05:45:59;;;;;;;8.80;3.80;;;;;;;12.19;100.00;100423.63;4958384;28;20050;-90
2021/10/17 05:48:25;;;;;;;6.40;2.55;;;;;;;12.34;100.00;100449.69;4972588;28;20463;-90
2021/10/17 05:50:51;;;;;;;7.60;2.55;;;;;;;12.32;100.00;100439.91;4945915;28;20485;-90
2021/10/17 05:53:16;;;;;;;9.20;2.45;;;;;;;12.23;100.00;100438.41;4987427;28;20030;-90
2021/10/17 05:55:42;;;;;;;8.23;2.92;;;;;;;12.36;100.00;100463.78;4956850;28;20045;-90
2021/10/17 05:58:08;;;;;;;8.07;2.13;;;;;;;12.21;100.00;100434.25;4955562;28;20042;-90
2021/10/17 06:00:34;;;;;;;6.20;2.38;;;;;;;12.34;100.00;100455.91;4944211;28;20259;-89
2021/10/17 06:03:00;;;;;;;9.63;2.67;;;;;;;12.29;100.00;100451.09;4957558;28;20463;-90
2021/10/17 06:05:27;;;;;;;8.82;2.25;;;;;;;12.28;100.00;100452.13;4984969;28;20772;-90
2021/10/17 06:07:53;;;;;;;9.77;2.92;;;;;;;12.25;100.00;100443.59;4956168;28;20086;-91
2021/10/17 06:10:19;;;;;;;10.73;3.17;;;;;;;12.24;100.00;100450.84;4973577;28;20039;-91
2021/10/17 06:12:45;;;;;;;10.63;4.25;;;;;;;12.37;100.00;100470.88;4970487;28;20370;-92
2021/10/17 06:15:11;;;;;;;13.20;3.85;;;;;;;12.22;100.00;100447.50;4951733;28;20126;-90
2021/10/17 06:17:37;;;;;;;16.60;4.13;;;;;;;12.42;100.00;100476.50;4948873;28;20038;-91
2021/10/17 06:20:04;;;;;;;13.75;3.85;;;;;;;12.22;100.00;100444.81;4954262;28;20038;-90
2021/10/17 06:22:29;;;;;;;20.50;6.03;;;;;;;12.42;100.00;100479.22;4949778;28;20034;-91
2021/10/17 06:24:56;;;;;;;13.85;4.15;;;;;;;12.28;100.00;100451.31;4971927;28;20515;-90
2021/10/17 06:27:21;;;;;;;14.63;4.97;;;;;;;12.24;100.00;100447.31;4952513;28;20365;-92
2021/10/17 06:29:47;;;;;;;16.80;5.32;;;;;;;12.28;100.00;100471.00;4955962;28;20048;-90
2021/10/17 06:32:13;;;;;;;12.43;4.57;;;;;;;12.22;100.00;100452.91;4957517;28;20039;-90
2021/10/17 06:34:39;;;;;;;11.50;3.85;;;;;;;12.20;100.00;100456.81;4953000;28;20067;-90
2021/10/17 06:37:07;;;;;;;21.05;6.93;;;;;;;12.32;100.00;100480.34;4957437;28;20046;-91
2021/10/17 06:39:32;;;;;;;14.60;5.50;;;;;;;12.41;100.00;100482.91;4957925;28;20030;-90
2021/10/17 06:41:58;;;;;;;10.70;3.90;;;;;;;12.36;100.00;100480.81;4954230;28;20104;-90
2021/10/17 06:44:24;;;;;;;13.60;5.40;;;;;;;12.23;100.00;100459.97;4959318;28;20042;-89
2021/10/17 06:46:50;;;;;;;11.82;4.25;;;;;;;12.37;100.00;100473.56;4974325;28;20066;-89
2021/10/17 06:49:17;;;;;;;20.52;6.07;;;;;;;12.24;100.00;100458.94;4957685;28;20372;-90
2021/10/17 06:51:43;;;;;;;17.85;5.30;;;;;;;12.42;100.00;100484.59;4954781;28;20042;-90
2021/10/17 06:54:09;;;;;;;19.95;5.63;;;;;;;12.29;100.00;100463.75;4973190;28;20611;-90
2021/10/17 06:56:34;;;;;;;19.88;6.35;;;;;;;12.42;100.00;100484.59;4953382;28;20062;-91
2021/10/17 06:59:00;;;;;;;15.68;6.50;;;;;;;12.27;100.00;100455.84;4953813;28;20047;-90
2021/10/17 07:01:26;;;;;;;19.52;6.18;;;;;;;12.44;100.00;100482.56;4985268;28;20027;-90
2021/10/17 07:03:52;;;;;;;17.45;6.30;;;;;;;12.28;100.00;100449.44;4962301;28;20045;-90
2021/10/17 07:06:17;;;;;;;17.58;6.43;;;;;;;12.25;100.00;100449.84;4960311;28;20055;-89
2021/10/17 07:08:46;;;;;;;15.45;4.95;;;;;;;12.27;100.00;100445.06;4960646;28;20039;-89
2021/10/17 07:11:12;;;;;;;11.80;4.32;;;;;;;12.34;100.00;100447.81;4975883;28;20038;-89
2021/10/17 07:13:38;;;;;;;11.73;3.63;;;;;;;12.30;100.00;100443.84;4951297;28;20039;-89
2021/10/17 07:16:04;;;;;;;15.25;4.70;;;;;;;12.32;100.00;100442.63;4953991;28;20035;-89
2021/10/17 07:18:30;;;;;;;17.90;6.28;;;;;;;12.37;100.00;100450.13;4952069;28;20170;-89
2021/10/17 07:20:56;;;;;;;21.73;6.85;;;;;;;12.54;100.00;100466.84;4948741;28;20499;-92
2021/10/17 07:23:22;;;;;;;24.02;8.52;;;;;;;12.47;100.00;100458.72;4969647;28;20053;-91
2021/10/17 07:25:48;;;;;;;28.63;8.77;;;;;;;12.54;100.00;100473.09;4950424;28;20456;-91
2021/10/17 07:28:14;;;;;;;28.33;8.98;;;;;;;12.40;100.00;100448.91;4958962;28;20038;-92
2021/10/17 07:30:40;;;;;;;26.42;8.63;;;;;;;12.49;100.00;100464.75;4952395;28;20489;-89
2021/10/17 07:33:06;;;;;;;22.67;7.53;;;;;;;12.42;100.00;100453.06;4953381;28;20452;-90
2021/10/17 07:35:32;;;;;;;25.27;6.45;;;;;;;12.44;100.00;100458.28;4938213;28;20117;-89
2021/10/17 07:37:58;;;;;;;28.08;7.40;;;;;;;12.47;100.00;100460.59;4953258;28;20050;-89
2021/10/17 07:40:24;;;;;;;26.38;8.88;;;;;;;12.60;100.00;100481.44;4954089;28;20043;-89
2021/10/17 07:42:50;;;;;;;23.38;7.72;;;;;;;12.58;100.00;100476.22;4949252;28;20121;-89
2021/10/17 07:45:16;;;;;;;17.23;6.40;;;;;;;12.66;100.00;100486.88;4939500;28;20050;-89
2021/10/17 07:47:42;;;;;;;16.38;6.25;;;;;;;12.62;100.00;100482.91;4978868;28;20046;-89
2021/10/17 07:50:09;;;;;;;10.50;3.95;;;;;;;12.69;100.00;100486.47;4955429;28;20464;-88
2021/10/17 07:52:36;;;;;;;12.40;5.00;;;;;;;12.71;100.00;100487.09;4970678;28;20047;-91
2021/10/17 07:55:07;;;;;;;8.90;3.20;;;;;;;12.71;100.00;100491.69;4968954;28;20041;-89
2021/10/17 07:57:59;;;;;;;8.50;3.10;;;;;;;12.85;100.00;100517.72;4968361;28;20507;-89
2021/10/17 08:00:27;;;;;;;5.72;2.58;;;;;;;12.80;100.00;100509.38;4970511;28;20034;-90
2021/10/17 08:02:53;;;;;;;8.75;2.53;;;;;;;12.76;100.00;100498.16;4973602;28;20108;-89
2021/10/17 08:05:19;;;;;;;7.55;2.33;;;;;;;12.81;100.00;100511.06;4954799;28;20034;-90
2021/10/17 08:07:46;;;;;;;4.65;1.80;;;;;;;12.83;100.00;100508.97;4976761;28;20046;-89
2021/10/17 08:10:12;;;;;;;6.22;2.33;;;;;;;12.96;100.00;100529.81;4957669;28;20038;-89
2021/10/17 08:12:38;;;;;;;3.67;1.67;;;;;;;12.81;100.00;100499.41;4954620;28;20053;-89
2021/10/17 08:15:05;;;;;;;5.70;1.70;;;;;;;12.95;100.00;100522.78;4979945;28;20026;-88
2021/10/17 08:17:35;;;;;;;6.95;1.90;;;;;;;12.86;100.00;100514.00;4954796;28;20090;-90
2021/10/17 08:20:02;;;;;;;4.90;1.55;;;;;;;12.90;100.00;100509.03;4968711;28;20039;-89
2021/10/17 08:22:28;;;;;;;6.97;2.75;;;;;;;13.12;100.00;100540.31;4953775;28;20097;-90
2021/10/17 08:24:54;;;;;;;9.40;2.55;;;;;;;13.02;100.00;100514.69;4948019;28;20046;-90
2021/10/17 08:27:20;;;;;;;5.68;2.28;;;;;;;13.02;100.00;100517.41;4954455;28;20031;-90
2021/10/17 08:29:46;;;;;;;4.90;2.22;;;;;;;13.15;100.00;100523.75;4968699;28;20129;-89
2021/10/17 08:32:12;;;;;;;8.38;4.13;;;;;;;13.15;100.00;100510.25;4963916;28;20147;-89
2021/10/17 08:34:37;;;;;;;9.30;3.38;;;;;;;13.33;100.00;100531.34;4949948;28;20076;-91
2021/10/17 08:37:03;;;;;;;7.32;3.25;;;;;;;13.29;100.00;100507.66;4968666;28;20039;-89
2021/10/17 08:39:29;;;;;;;14.25;4.78;;;;;;;13.33;100.00;100509.72;4970623;28;20041;-89
2021/10/17 08:41:55;;;;;;;11.88;4.72;;;;;;;13.39;100.00;100516.22;4986580;28;20039;-90
2021/10/17 08:44:21;;;;;;;11.60;5.20;;;;;;;13.57;100.00;100543.50;4955718;28;20369;-90
2021/10/17 08:46:47;;;;;;;15.10;5.80;;;;;;;13.48;100.00;100516.88;4972567;28;20063;-89
2021/10/17 08:49:13;;;;;;;14.43;5.72;;;;;;;13.40;100.00;100523.28;4956146;28;20477;-90
2021/10/17 08:51:39;;;;;;;12.93;6.15;;;;;;;13.40;100.00;100525.97;4970014;28;20043;-90
2021/10/17 08:54:06;;;;;;;13.93;5.93;;;;;;;13.48;100.00;100533.09;4971302;28;20084;-90
2021/10/17 08:56:32;;;;;;;13.77;5.15;;;;;;;13.49;100.00;100535.56;4954049;28;20253;-90
2021/10/17 08:58:58;;;;;;;16.63;6.72;;;;;;;13.54;100.00;100525.00;4957707;28;20489;-91
2021/10/17 09:01:34;;;;;;;10.57;4.13;;;;;;;13.62;100.00;100537.50;4962858;28;20042;-89
2021/10/17 09:04:00;;;;;;;10.95;4.20;;;;;;;13.51;100.00;100530.81;4957998;28;20038;-89
2021/10/17 09:06:29;;;;;;;10.65;3.45;;;;;;;13.40;100.00;100531.38;4957012;28;20121;-88
2021/10/17 09:09:21;;;;;;;11.88;3.83;;;;;;;13.45;100.00;100533.50;4971334;28;20391;-89
2021/10/17 09:11:58;;;;;;;7.90;3.30;;;;;;;13.61;100.00;100541.25;4973006;28;20043;-90
2021/10/17 09:14:27;;;;;;;9.00;4.15;;;;;;;13.77;100.00;100558.97;4957468;28;20039;-90
2021/10/17 09:16:57;;;;;;;9.45;4.35;;;;;;;14.00;100.00;100559.50;4959150;28;20103;-89
2021/10/17 09:19:24;;;;;;;8.85;4.60;;;;;;;14.15;100.00;100558.47;4957274;28;20034;-89
2021/10/17 09:22:09;;;;;;;6.25;2.83;;;;;;;14.23;100.00;100548.28;4958134;28;20058;-90
2021/10/17 09:24:48;;;;;;;5.78;4.25;;;;;;;14.22;100.00;100519.59;4956369;28;20482;-89
2021/10/17 09:27:15;;;;;;;7.43;5.03;;;;;;;14.65;100.00;100559.84;4990285;28;20045;-90
2021/10/17 09:29:48;;;;;;;10.20;4.20;;;;;;;14.63;100.00;100532.16;4952889;28;20081;-89
2021/10/17 09:32:20;;;;;;;6.80;4.20;;;;;;;14.53;100.00;100523.63;4971368;28;20177;-90
2021/10/17 09:35:00;;;;;;;7.03;4.45;;;;;;;14.70;100.00;100530.28;4956684;28;20502;-89
2021/10/17 09:37:44;;;;;;;5.63;3.28;;;;;;;14.77;99.61;100538.41;4969568;28;20065;-91
2021/10/17 09:40:21;;;;;;;7.80;4.30;;;;;;;14.77;98.33;100513.22;4970392;28;20034;-91
2021/10/17 09:43:12;;;;;;;8.95;4.15;;;;;;;14.92;98.84;100524.63;4971998;28;20074;-91
2021/10/17 09:45:39;;;;;;;8.27;4.07;;;;;;;14.79;99.66;100525.50;4968309;28;20062;-91
2021/10/17 09:48:06;;;;;;;9.55;4.13;;;;;;;15.03;98.42;100540.25;4962613;28;20064;-92
2021/10/17 09:50:32;;;;;;;7.88;4.15;;;;;;;14.98;98.42;100539.19;4951650;28;20485;-90
2021/10/17 09:53:07;;;;;;;7.72;4.32;;;;;;;15.05;99.54;100553.56;4958236;28;20117;-92
2021/10/17 09:55:34;;;;;;;10.18;3.88;;;;;;;14.85;99.36;100532.78;4953404;28;20066;-91
2021/10/17 09:58:00;;;;;;;8.95;4.43;;;;;;;14.78;98.78;100553.59;4970861;28;20073;-91
2021/10/17 10:00:26;;;;;;;8.90;3.90;;;;;;;14.91;99.06;100572.53;4952165;28;20464;-92
2021/10/17 10:02:53;;;;;;;6.90;3.45;;;;;;;14.81;98.75;100541.50;4958115;28;20121;-92
2021/10/17 10:05:32;;;;;;;10.23;4.07;;;;;;;14.75;99.47;100556.72;4974834;28;20038;-91
2021/10/17 10:08:00;;;;;;;7.90;4.00;;;;;;;14.88;99.31;100555.88;4973073;28;20022;-92
2021/10/17 10:10:31;;;;;;;7.72;4.55;;;;;;;14.83;98.72;100537.56;4958403;28;20065;-92
2021/10/17 10:12:58;;;;;;;9.43;3.45;;;;;;;14.90;98.36;100564.63;4958686;28;20041;-92
2021/10/17 10:15:27;;;;;;;6.80;3.55;;;;;;;14.88;98.55;100566.72;4958305;28;20070;-92
2021/10/17 10:17:54;;;;;;;7.63;4.10;;;;;;;14.94;98.32;100560.47;4958165;28;20046;-92
2021/10/17 10:20:24;;;;;;;6.20;3.45;;;;;;;14.82;98.19;100554.00;4957634;28;20476;-91
2021/10/17 10:22:51;;;;;;;5.55;2.63;;;;;;;14.70;98.58;100553.81;4956670;28;20061;-89
2021/10/17 10:25:17;;;;;;;4.88;2.60;;;;;;;14.80;98.26;100569.63;4972528;28;20039;-88
2021/10/17 10:27:44;;;;;;;5.63;2.33;;;;;;;14.72;98.17;100570.66;4964331;28;20099;-88
2021/10/17 10:30:32;;;;;;;4.47;2.40;;;;;;;14.76;97.67;100563.78;4963522;28;20129;-86
2021/10/17 10:33:14;;;;;;;5.35;2.75;;;;;;;14.75;97.51;100566.72;4953577;28;20038;-88
2021/10/17 10:36:03;;;;;;;6.20;2.90;;;;;;;14.67;98.22;100575.88;4990281;28;20070;-87
2021/10/17 10:38:51;;;;;;;4.18;1.95;;;;;;;14.77;97.32;100581.72;4988974;28;20058;-88
2021/10/17 10:41:28;;;;;;;6.57;2.42;;;;;;;14.86;96.70;100566.09;4958383;28;20465;-88
2021/10/17 10:44:13;;;;;;;2.97;1.42;;;;;;;15.27;95.45;100586.66;4986109;28;20584;-88
2021/10/17 10:46:39;;;;;;;5.53;1.90;;;;;;;15.64;94.02;100568.88;4955142;28;20041;-88
2021/10/17 10:49:08;;;;;;;2.83;1.45;;;;;;;16.10;92.72;100577.88;4950749;28;20043;-89
2021/10/17 10:51:42;;;;;;;2.10;1.10;;;;;;;16.22;90.33;100595.97;4973134;28;20366;-88
2021/10/17 10:54:23;;;;;;;1.05;0.82;;;;;;;16.05;89.25;100595.63;4946062;28;20039;-93
2021/10/17 10:56:52;;;;;;;2.50;1.45;;;;;;;15.96;89.50;100596.09;4971570;28;20031;-93
2021/10/17 10:59:21;;;;;;;4.68;1.73;;;;;;;15.91;89.26;100598.63;4957039;28;20034;-91
2021/10/17 11:02:00;;;;;;;2.30;1.13;;;;;;;15.94;89.55;100595.47;4956052;28;20579;-93
2021/10/17 11:04:41;;;;;;;2.83;1.23;;;;;;;16.05;89.49;100622.75;4964491;28;20039;-91
2021/10/17 11:07:36;;;;;;;3.85;1.35;;;;;;;15.95;89.24;100616.13;4985325;28;20030;-93
2021/10/17 11:10:25;;;;;;;4.82;1.95;;;;;;;15.82;89.53;100633.25;4990660;28;20039;-93
2021/10/17 11:12:59;;;;;;;4.57;1.80;;;;;;;15.66;89.70;100630.97;4988070;28;20042;-91
2021/10/17 11:15:27;;;;;;;3.60;1.55;;;;;;;15.40;90.76;100602.91;4956825;28;20500;-91
2021/10/17 11:18:04;;;;;;;3.90;1.38;;;;;;;15.50;90.77;100613.28;4952759;28;20062;-92
2021/10/17 11:20:45;;;;;;;6.53;2.15;;;;;;;15.36;91.52;100618.75;4994557;28;20035;-91